createdAt,value
2022-09-28T00:01:30.592Z,81.48
2022-09-28T00:03:58.806Z,81.21
2022-09-28T00:06:28.277Z,81.78
2022-09-28T00:08:55.822Z,81.86
2022-09-28T00:11:23.958Z,82.13
2022-09-28T00:13:53.742Z,82.77
2022-09-28T00:16:24.221Z,82.48
2022-09-28T00:18:52.362Z,82.16
2022-09-28T00:21:22.344Z,83.36
2022-09-28T00:24:11.698Z,83.40
2022-09-28T00:26:44.868Z,82.86
2022-09-28T00:29:18.403Z,82.91
2022-09-28T00:31:46.270Z,84.38
2022-09-28T00:34:14.103Z,84.16
2022-09-28T00:36:44.379Z,84.68
2022-09-28T00:39:14.466Z,84.36
2022-09-28T00:41:42.676Z,84.42
2022-09-28T00:44:24.688Z,85.01
2022-09-28T00:47:27.069Z,85.15
2022-09-28T00:50:20.149Z,85.07
2022-09-28T00:52:54.081Z,85.14
2022-09-28T00:55:30.986Z,84.63
2022-09-28T00:58:03.475Z,84.76
2022-09-28T01:00:30.672Z,84.72
2022-09-28T01:02:58.686Z,85.06
2022-09-28T01:05:27.548Z,84.95
2022-09-28T01:07:57.166Z,85.74
2022-09-28T01:10:24.333Z,85.08
2022-09-28T01:12:51.250Z,85.17
2022-09-28T01:15:21.929Z,85.99
2022-09-28T01:17:54.514Z,85.66
2022-09-28T01:20:39.941Z,87.21
2022-09-28T01:23:21.564Z,86.57
2022-09-28T01:26:23.815Z,87.30
2022-09-28T01:28:58.330Z,87.29
2022-09-28T01:31:29.886Z,87.42
2022-09-28T01:34:11.717Z,87.24
2022-09-28T01:36:44.216Z,87.31
2022-09-28T01:39:15.628Z,87.49
2022-09-28T01:41:46.155Z,87.41
2022-09-28T01:44:17.997Z,87.33
2022-09-28T01:46:48.965Z,87.63
2022-09-28T01:49:18.737Z,88.26
2022-09-28T01:52:11.369Z,88.43
2022-09-28T01:54:50.327Z,88.59
2022-09-28T01:57:26.535Z,88.82
2022-09-28T02:00:13.189Z,89.08
2022-09-28T02:03:09.807Z,89.47
2022-09-28T02:05:51.300Z,89.22
2022-09-28T02:08:28.543Z,88.97
2022-09-28T02:11:03.835Z,88.75
2022-09-28T02:13:37.544Z,88.84
2022-09-28T02:16:18.849Z,89.11
2022-09-28T02:18:46.527Z,89.09
2022-09-28T02:21:25.922Z,89.09
2022-09-28T02:24:06.878Z,88.95
2022-09-28T02:26:39.481Z,89.11
2022-09-28T02:29:06.427Z,88.97
2022-09-28T02:31:33.450Z,88.96
2022-09-28T02:34:00.936Z,89.64
2022-09-28T02:36:28.748Z,90.12
2022-09-28T02:38:57.801Z,89.87
2022-09-28T02:41:45.681Z,89.77
2022-09-28T02:44:39.026Z,89.25
2022-09-28T02:47:15.225Z,89.59
2022-09-28T02:50:01.195Z,90.03
2022-09-28T02:53:22.149Z,90.81
2022-09-28T02:56:10.961Z,90.10
2022-09-28T02:58:58.229Z,90.39
2022-09-28T03:01:43.870Z,90.96
2022-09-28T03:04:13.864Z,90.74
2022-09-28T03:06:47.505Z,91.57
2022-09-28T03:09:19.331Z,90.83
2022-09-28T03:11:52.035Z,91.36
2022-09-28T03:14:19.558Z,91.08
2022-09-28T03:16:52.229Z,90.71
2022-09-28T03:19:26.781Z,90.65
2022-09-28T03:21:55.377Z,91.40
2022-09-28T03:24:22.441Z,91.43
2022-09-28T03:26:49.987Z,91.60
2022-09-28T03:29:17.251Z,91.36
2022-09-28T03:31:48.012Z,91.60
2022-09-28T03:34:15.535Z,91.69
2022-09-28T03:36:43.145Z,91.11
2022-09-28T03:39:10.171Z,91.36
2022-09-28T03:41:38.420Z,91.44
2022-09-28T03:44:05.480Z,91.92
2022-09-28T03:46:33.427Z,91.20
2022-09-28T03:49:05.524Z,91.02
2022-09-28T03:51:32.540Z,90.84
2022-09-28T03:53:59.690Z,90.95
2022-09-28T03:56:26.978Z,91.46
2022-09-28T03:58:54.005Z,91.49
2022-09-28T04:01:21.018Z,91.26
2022-09-28T04:03:53.001Z,91.19
2022-09-28T04:06:20.137Z,91.50
2022-09-28T04:08:46.979Z,92.09
2022-09-28T04:11:14.175Z,91.60
2022-09-28T04:13:41.396Z,91.89
2022-09-28T04:16:11.831Z,91.80
2022-09-28T04:18:43.350Z,91.63
2022-09-28T04:21:19.618Z,92.18
2022-09-28T04:24:01.872Z,92.59
2022-09-28T04:26:30.520Z,92.45
2022-09-28T04:29:15.851Z,92.26
2022-09-28T04:32:03.056Z,91.92
2022-09-28T04:34:37.986Z,92.48
2022-09-28T04:37:07.798Z,91.82
2022-09-28T04:39:34.725Z,91.77
2022-09-28T04:42:02.027Z,92.18
2022-09-28T04:44:29.387Z,91.87
2022-09-28T04:47:05.490Z,91.74
2022-09-28T04:49:35.461Z,91.72
2022-09-28T04:52:18.543Z,92.29
2022-09-28T04:54:48.569Z,91.46
2022-09-28T04:57:16.566Z,91.31
2022-09-28T04:59:43.694Z,91.43
2022-09-28T05:02:12.163Z,91.36
2022-09-28T05:05:11.584Z,91.35
2022-09-28T05:08:18.296Z,90.82
2022-09-28T05:10:45.681Z,90.88
2022-09-28T05:13:14.146Z,91.08
2022-09-28T05:15:42.881Z,90.73
2022-09-28T05:18:10.035Z,91.21
2022-09-28T05:20:50.851Z,90.73
2022-09-28T05:23:18.241Z,91.41
2022-09-28T05:25:46.087Z,91.13
2022-09-28T05:28:27.452Z,91.40
2022-09-28T05:31:12.749Z,91.41
2022-09-28T05:34:15.358Z,91.27
2022-09-28T05:36:42.975Z,91.79
2022-09-28T05:39:09.974Z,91.92
2022-09-28T05:41:37.038Z,92.62
2022-09-28T05:44:04.980Z,92.04
2022-09-28T05:46:31.902Z,93.06
2022-09-28T05:49:00.925Z,93.26
2022-09-28T05:51:28.227Z,93.70
2022-09-28T05:53:56.178Z,93.26
2022-09-28T05:56:25.638Z,94.19
2022-09-28T05:58:53.024Z,94.68
2022-09-28T06:01:22.024Z,94.29
2022-09-28T06:03:49.366Z,95.00
2022-09-28T06:06:16.723Z,94.51
2022-09-28T06:08:46.437Z,94.45
2022-09-28T06:11:28.052Z,94.45
2022-09-28T06:13:57.595Z,94.22
2022-09-28T06:16:27.888Z,94.13
2022-09-28T06:18:54.805Z,93.96
2022-09-28T06:21:40.182Z,94.10
2022-09-28T06:24:07.867Z,94.42
2022-09-28T06:26:36.260Z,94.02
2022-09-28T06:29:04.310Z,94.20
2022-09-28T06:31:31.496Z,93.63
2022-09-28T06:34:01.939Z,94.27
2022-09-28T06:36:31.445Z,94.07
2022-09-28T06:38:58.688Z,93.73
2022-09-28T06:41:25.849Z,93.97
2022-09-28T06:43:53.253Z,94.54
2022-09-28T06:46:40.304Z,93.98
2022-09-28T06:49:27.882Z,94.09
2022-09-28T06:52:15.122Z,94.26
2022-09-28T06:55:01.794Z,94.67
2022-09-28T06:57:46.957Z,93.91
2022-09-28T07:00:14.796Z,93.74
2022-09-28T07:02:44.780Z,94.35
2022-09-28T07:05:37.053Z,94.07
2022-09-28T07:08:30.117Z,93.56
2022-09-28T07:11:26.916Z,93.08
2022-09-28T07:14:24.815Z,93.85
2022-09-28T07:17:12.696Z,94.43
2022-09-28T07:19:40.872Z,93.54
2022-09-28T07:22:07.958Z,93.46
2022-09-28T07:24:34.933Z,93.65
2022-09-28T07:27:37.136Z,92.88
2022-09-28T07:30:17.630Z,93.06
2022-09-28T07:33:14.655Z,92.92
2022-09-28T07:35:55.399Z,92.85
2022-09-28T07:38:29.795Z,92.57
2022-09-28T07:41:14.000Z,92.09
2022-09-28T07:43:46.974Z,92.36
2022-09-28T07:46:13.985Z,91.87
2022-09-28T07:48:49.659Z,91.71
2022-09-28T07:51:24.851Z,92.00
2022-09-28T07:54:17.987Z,91.30
2022-09-28T07:57:17.335Z,91.44
2022-09-28T07:59:53.691Z,91.70
2022-09-28T08:02:35.273Z,90.89
2022-09-28T08:05:02.817Z,90.77
2022-09-28T08:07:29.820Z,90.72
2022-09-28T08:10:03.137Z,89.68
2022-09-28T08:12:30.276Z,89.42
2022-09-28T08:15:06.776Z,89.63
2022-09-28T08:17:48.502Z,88.94
2022-09-28T08:20:35.915Z,88.11
2022-09-28T08:23:07.370Z,88.55
2022-09-28T08:25:38.935Z,88.50
2022-09-28T08:28:07.448Z,88.11
2022-09-28T08:30:40.596Z,87.91
2022-09-28T08:33:25.907Z,87.79
2022-09-28T08:36:11.690Z,87.18
2022-09-28T08:38:54.130Z,86.96
2022-09-28T08:41:39.685Z,86.93
2022-09-28T08:44:48.610Z,86.28
2022-09-28T08:48:14.748Z,85.72
2022-09-28T08:51:22.481Z,86.37
2022-09-28T08:54:24.481Z,85.74
2022-09-28T08:57:17.849Z,85.63
2022-09-28T08:59:52.356Z,86.06
2022-09-28T09:02:39.764Z,85.43
2022-09-28T09:05:19.247Z,85.00
2022-09-28T09:08:18.705Z,85.41
2022-09-28T09:11:07.594Z,84.52
2022-09-28T09:13:41.052Z,85.12
2022-09-28T09:16:37.987Z,83.82
2022-09-28T09:19:47.117Z,82.92
2022-09-28T09:22:38.785Z,82.51
2022-09-28T09:25:21.636Z,82.26
2022-09-28T09:28:28.453Z,81.53
2022-09-28T09:31:27.879Z,81.29
2022-09-28T09:34:17.384Z,80.43
2022-09-28T09:37:01.201Z,81.33
2022-09-28T09:39:56.255Z,81.18
2022-09-28T09:43:31.559Z,79.49
2022-09-28T09:46:33.935Z,80.51
2022-09-28T09:49:30.563Z,79.56
2022-09-28T09:52:28.014Z,79.42
2022-09-28T09:55:15.213Z,79.68
2022-09-28T09:58:13.104Z,79.06
2022-09-28T10:00:47.391Z,78.27
2022-09-28T10:03:30.457Z,77.22
2022-09-28T10:06:16.359Z,77.63
2022-09-28T10:08:52.489Z,76.32
2022-09-28T10:11:31.784Z,76.26
2022-09-28T10:13:59.542Z,76.95
2022-09-28T10:16:38.685Z,76.47
2022-09-28T10:19:13.453Z,76.52
2022-09-28T10:22:02.223Z,76.39
2022-09-28T10:24:38.823Z,76.11
2022-09-28T10:27:19.424Z,77.04
2022-09-28T10:29:54.121Z,76.61
2022-09-28T10:32:24.226Z,76.68
2022-09-28T10:35:14.880Z,76.61
2022-09-28T10:37:59.973Z,76.80
2022-09-28T10:40:59.638Z,76.58
2022-09-28T10:43:38.963Z,75.97
2022-09-28T10:46:21.353Z,75.92
2022-09-28T10:48:56.508Z,76.05
2022-09-28T10:51:51.754Z,75.02
2022-09-28T10:54:26.451Z,75.43
2022-09-28T10:56:58.749Z,75.69
2022-09-28T10:59:37.502Z,75.75
2022-09-28T11:02:35.469Z,75.43
2022-09-28T11:05:22.508Z,75.73
2022-09-28T11:07:52.886Z,75.27
2022-09-28T11:10:30.290Z,75.13
2022-09-28T11:13:03.058Z,74.84
2022-09-28T11:15:33.546Z,74.54
2022-09-28T11:18:29.678Z,74.32
2022-09-28T11:21:17.105Z,73.54
2022-09-28T11:24:08.105Z,74.34
2022-09-28T11:26:46.525Z,74.37
2022-09-28T11:29:44.311Z,73.88
2022-09-28T11:32:30.763Z,74.75
2022-09-28T11:35:23.134Z,74.39
2022-09-28T11:37:54.774Z,74.98
2022-09-28T11:41:00.587Z,74.73
2022-09-28T11:43:52.085Z,74.35
2022-09-28T11:46:52.129Z,73.46
2022-09-28T11:49:28.113Z,73.58
2022-09-28T11:51:59.363Z,73.61
2022-09-28T11:54:51.950Z,73.87
2022-09-28T11:57:24.673Z,74.17
2022-09-28T12:00:20.869Z,73.07
2022-09-28T12:03:08.284Z,72.70
2022-09-28T12:05:42.694Z,72.56
2022-09-28T12:08:17.422Z,72.98
2022-09-28T12:11:32.531Z,73.22
2022-09-28T12:14:24.452Z,73.72
2022-09-28T12:17:06.779Z,73.31
2022-09-28T12:19:59.497Z,73.99
2022-09-28T12:22:35.486Z,73.59
2022-09-28T12:25:04.194Z,74.22
2022-09-28T12:27:41.601Z,73.84
2022-09-28T12:30:20.390Z,74.45
2022-09-28T12:32:53.149Z,73.86
2022-09-28T12:35:27.485Z,74.14
2022-09-28T12:38:19.407Z,74.46
2022-09-28T12:41:05.675Z,73.03
2022-09-28T12:44:10.222Z,72.95
2022-09-28T12:46:47.805Z,72.82
2022-09-28T12:52:53.200Z,72.07
2022-09-28T12:55:51.158Z,72.04
2022-09-28T12:58:36.795Z,71.65
2022-09-28T13:01:57.856Z,71.72
2022-09-28T13:04:30.061Z,72.48
2022-09-28T13:07:08.381Z,72.72
2022-09-28T13:10:19.861Z,72.55
2022-09-28T13:13:04.662Z,72.60
2022-09-28T13:15:50.226Z,73.10
2022-09-28T13:18:39.390Z,73.89
2022-09-28T13:21:22.151Z,73.70
2022-09-28T13:23:57.852Z,74.05
2022-09-28T13:26:42.173Z,73.53
2022-09-28T13:29:16.940Z,73.51
2022-09-28T13:31:51.627Z,75.56
2022-09-28T13:34:22.771Z,74.52
2022-09-28T13:37:22.155Z,74.13
2022-09-28T13:39:53.723Z,74.54
2022-09-28T13:42:45.073Z,74.66
2022-09-28T13:45:21.126Z,75.54
2022-09-28T13:48:00.326Z,75.52
2022-09-28T13:50:54.962Z,75.94
2022-09-28T13:53:27.449Z,76.78
2022-09-28T13:56:26.439Z,76.59
2022-09-28T13:59:01.460Z,76.18
2022-09-28T14:01:36.567Z,75.78
2022-09-28T14:04:24.631Z,75.64
2022-09-28T14:06:55.486Z,75.78
2022-09-28T14:09:41.048Z,75.43
2022-09-28T14:12:35.255Z,75.82
2022-09-28T14:15:06.616Z,75.83
2022-09-28T14:17:45.731Z,76.39
2022-09-28T14:20:18.847Z,76.83
2022-09-28T14:22:47.322Z,76.55
2022-09-28T14:25:36.416Z,77.41
2022-09-28T14:28:03.240Z,77.53
2022-09-28T14:30:42.068Z,78.02
2022-09-28T14:33:21.118Z,77.57
2022-09-28T14:35:56.608Z,77.91
2022-09-28T14:38:48.078Z,77.29
2022-09-28T14:41:34.596Z,77.33
2022-09-28T14:44:03.737Z,78.26
2022-09-28T14:46:35.719Z,78.38
2022-09-28T14:49:17.867Z,77.82
2022-09-28T14:52:03.470Z,78.42
2022-09-28T14:54:49.419Z,78.44
2022-09-28T14:57:19.891Z,78.67
2022-09-28T14:59:47.947Z,78.18
2022-09-28T15:02:18.505Z,78.87
2022-09-28T15:05:01.439Z,78.11
2022-09-28T15:07:47.700Z,78.30
2022-09-28T15:10:31.452Z,78.04
2022-09-28T15:13:01.956Z,77.35
2022-09-28T15:15:35.717Z,77.32
2022-09-28T15:18:19.360Z,77.87
2022-09-28T15:20:49.147Z,77.03
2022-09-28T15:23:37.430Z,75.14
2022-09-28T15:26:09.313Z,75.30
2022-09-28T15:28:43.345Z,75.23
2022-09-28T15:31:18.368Z,75.80
2022-09-28T15:34:03.863Z,75.86
2022-09-28T15:36:36.458Z,75.58
2022-09-28T15:39:10.583Z,75.90
2022-09-28T15:41:37.871Z,75.93
2022-09-28T15:44:17.098Z,74.45
2022-09-28T15:46:48.001Z,75.09
2022-09-28T15:49:31.588Z,75.52
2022-09-28T15:52:03.123Z,75.79
2022-09-28T15:54:41.729Z,75.98
2022-09-28T15:57:30.125Z,76.34
2022-09-28T15:59:57.095Z,75.65
2022-09-28T16:02:25.417Z,76.35
2022-09-28T16:04:55.319Z,75.79
2022-09-28T16:07:34.013Z,76.77
2022-09-28T16:10:25.443Z,75.06
2022-09-28T16:13:00.304Z,74.49
2022-09-28T16:15:30.413Z,75.41
2022-09-28T16:18:07.143Z,75.34
2022-09-28T16:20:40.282Z,74.96
2022-09-28T16:23:16.337Z,75.69
2022-09-28T16:26:02.178Z,75.38
2022-09-28T16:28:37.708Z,75.13
2022-09-28T16:31:27.493Z,75.71
2022-09-28T16:33:59.813Z,76.45
2022-09-28T16:36:30.028Z,76.56
2022-09-28T16:38:57.255Z,76.08
2022-09-28T16:41:29.052Z,76.84
2022-09-28T16:44:02.285Z,77.17
2022-09-28T16:46:37.333Z,77.21
2022-09-28T16:49:06.255Z,76.97
2022-09-28T16:51:34.838Z,77.62
2022-09-28T16:54:46.036Z,77.86
2022-09-28T16:57:15.262Z,78.02
2022-09-28T16:59:42.717Z,77.78
2022-09-28T17:02:42.304Z,78.39
2022-09-28T17:05:07.284Z,78.34
2022-09-28T17:07:34.751Z,78.17
2022-09-28T17:10:01.827Z,79.14
2022-09-28T17:12:30.257Z,78.83
2022-09-28T17:14:57.722Z,78.61
2022-09-28T17:17:29.888Z,79.67
2022-09-28T17:19:56.855Z,79.57
2022-09-28T17:22:23.772Z,79.75
2022-09-28T17:24:50.599Z,80.17
2022-09-28T17:27:19.672Z,79.95
2022-09-28T17:29:46.870Z,79.44
2022-09-28T17:32:18.925Z,79.74
2022-09-28T17:34:55.854Z,79.43
2022-09-28T17:37:28.654Z,80.02
2022-09-28T17:39:55.582Z,79.28
2022-09-28T17:42:22.670Z,79.73
2022-09-28T17:44:49.522Z,79.75
2022-09-28T17:47:16.504Z,79.55
2022-09-28T17:49:45.999Z,79.75
2022-09-28T17:52:13.830Z,80.12
2022-09-28T17:54:40.754Z,80.42
2022-09-28T17:57:10.259Z,79.95
2022-09-28T17:59:37.127Z,80.38
2022-09-28T18:02:04.128Z,80.13
2022-09-28T18:04:50.753Z,79.68
2022-09-28T18:07:17.914Z,80.77
2022-09-28T18:09:44.915Z,80.56
2022-09-28T18:12:11.929Z,80.51
2022-09-28T18:14:40.059Z,79.85
2022-09-28T18:17:07.007Z,80.61
2022-09-28T18:19:33.876Z,80.40
2022-09-28T18:22:01.550Z,80.64
2022-09-28T18:24:28.888Z,80.53
2022-09-28T18:26:56.193Z,80.48
2022-09-28T18:29:23.192Z,80.85
2022-09-28T18:31:50.553Z,80.78
2022-09-28T18:34:17.793Z,81.42
2022-09-28T18:36:44.906Z,81.12
2022-09-28T18:39:11.996Z,81.10
2022-09-28T18:41:39.051Z,81.07
2022-09-28T18:44:06.096Z,81.27
2022-09-28T18:46:36.445Z,81.81
2022-09-28T18:49:04.662Z,81.09
2022-09-28T18:51:31.562Z,81.43
2022-09-28T18:53:58.449Z,81.66
2022-09-28T18:56:26.924Z,81.58
2022-09-28T18:58:53.969Z,81.84
2022-09-28T19:01:30.463Z,81.69
2022-09-28T19:04:03.658Z,81.22
2022-09-28T19:06:31.940Z,80.87
2022-09-28T19:08:59.017Z,81.97
2022-09-28T19:11:27.134Z,81.80
2022-09-28T19:13:55.649Z,80.96
2022-09-28T19:16:28.558Z,81.35
2022-09-28T19:18:59.148Z,81.59
2022-09-28T19:21:26.897Z,81.61
2022-09-28T19:23:55.622Z,81.37
2022-09-28T19:26:27.473Z,81.56
2022-09-28T19:28:57.181Z,81.60
2022-09-28T19:31:24.836Z,81.35
2022-09-28T19:33:52.130Z,81.27
2022-09-28T19:36:22.538Z,81.21
2022-09-28T19:38:51.355Z,81.48
2022-09-28T19:41:42.813Z,82.00
2022-09-28T19:44:31.805Z,81.40
2022-09-28T19:47:10.014Z,81.32
2022-09-28T19:49:39.376Z,80.91
2022-09-28T19:52:17.899Z,81.68
2022-09-28T19:54:57.050Z,81.59
2022-09-28T19:57:27.416Z,81.40
2022-09-28T20:00:00.910Z,81.64
2022-09-28T20:02:33.737Z,82.36
2022-09-28T20:05:00.913Z,82.49
2022-09-28T20:07:27.832Z,82.54
2022-09-28T20:09:54.665Z,81.86
2022-09-28T20:12:22.354Z,81.82
2022-09-28T20:14:49.269Z,81.31
2022-09-28T20:17:16.335Z,81.59
2022-09-28T20:19:43.323Z,81.38
2022-09-28T20:22:11.139Z,81.61
2022-09-28T20:24:37.992Z,81.28
2022-09-28T20:27:04.855Z,81.43
2022-09-28T20:29:33.606Z,81.36
2022-09-28T20:32:01.246Z,81.25
2022-09-28T20:34:28.112Z,81.08
2022-09-28T20:36:55.049Z,80.91
2022-09-28T20:39:21.891Z,80.86
2022-09-28T20:41:49.271Z,81.84
2022-09-28T20:44:16.806Z,81.20
2022-09-28T20:46:44.343Z,81.16
2022-09-28T20:49:11.869Z,81.42
2022-09-28T20:51:38.798Z,81.42
2022-09-28T20:54:05.870Z,80.86
2022-09-28T20:56:40.547Z,80.85
2022-09-28T20:59:10.139Z,80.55
2022-09-28T21:01:37.780Z,80.85
2022-09-28T21:04:06.986Z,81.22
2022-09-28T21:06:36.016Z,81.03
2022-09-28T21:09:04.781Z,80.97
2022-09-28T21:11:32.389Z,81.10
2022-09-28T21:14:01.861Z,81.56
2022-09-28T21:16:31.125Z,80.96
2022-09-28T21:18:58.821Z,81.16
2022-09-28T21:21:26.734Z,81.75
2022-09-28T21:23:57.731Z,81.67
2022-09-28T21:26:27.019Z,81.69
2022-09-28T21:28:56.935Z,81.47
2022-09-28T21:31:28.745Z,81.33
2022-09-28T21:33:59.275Z,81.81
2022-09-28T21:36:26.390Z,81.53
2022-09-28T21:38:55.637Z,80.97
2022-09-28T21:41:24.266Z,80.87
2022-09-28T21:43:52.148Z,81.09
2022-09-28T21:46:19.107Z,81.31
2022-09-28T21:48:46.116Z,81.58
2022-09-28T21:51:15.040Z,81.39
2022-09-28T21:53:42.779Z,81.13
2022-09-28T21:56:11.695Z,81.14
2022-09-28T21:58:40.281Z,81.27
2022-09-28T22:01:19.607Z,81.35
2022-09-28T22:03:51.712Z,81.83
2022-09-28T22:06:20.866Z,81.50
2022-09-28T22:08:49.299Z,81.26
2022-09-28T22:11:21.955Z,80.52
2022-09-28T22:13:53.797Z,80.50
2022-09-28T22:16:23.049Z,80.93
2022-09-28T22:18:50.672Z,80.47
2022-09-28T22:21:23.111Z,81.15
2022-09-28T22:23:50.547Z,80.48
2022-09-28T22:26:25.418Z,80.44
2022-09-28T22:29:00.303Z,80.54
2022-09-28T22:31:30.984Z,80.33
2022-09-28T22:33:58.316Z,81.00
2022-09-28T22:36:26.147Z,80.22
2022-09-28T22:38:54.685Z,81.25
2022-09-28T22:41:21.933Z,80.54
2022-09-28T22:43:50.662Z,80.81
2022-09-28T22:46:20.141Z,81.11
2022-09-28T22:48:49.296Z,81.31
2022-09-28T22:51:16.649Z,81.73
2022-09-28T22:53:44.279Z,82.30
2022-09-28T22:56:15.972Z,82.91
2022-09-28T22:58:45.291Z,81.89
2022-09-28T23:01:21.414Z,82.40
2022-09-28T23:03:49.299Z,82.13
2022-09-28T23:06:18.238Z,82.30
2022-09-28T23:08:46.455Z,82.48
2022-09-28T23:11:13.656Z,82.82
2022-09-28T23:13:41.173Z,83.10
2022-09-28T23:16:10.830Z,82.77
2022-09-28T23:18:40.979Z,82.30
2022-09-28T23:21:16.132Z,82.95
2022-09-28T23:23:43.845Z,82.72
2022-09-28T23:26:22.350Z,83.06
2022-09-28T23:28:49.239Z,82.65
2022-09-28T23:31:23.343Z,82.78
2022-09-28T23:33:51.237Z,82.96
2022-09-28T23:36:18.663Z,82.81
2022-09-28T23:38:45.522Z,83.71
2022-09-28T23:41:12.455Z,84.33
2022-09-28T23:43:39.307Z,84.25
2022-09-28T23:46:06.553Z,84.73
2022-09-28T23:48:33.772Z,84.30
2022-09-28T23:51:01.196Z,85.13
2022-09-28T23:53:28.615Z,85.35
2022-09-28T23:55:55.757Z,85.06
2022-09-28T23:58:22.756Z,84.88
